»·PEaware :: WAT307 KAVX-KSBA

WAT307 :: KAVX-KSBA

FLIGHT INFORMATION

Flight Status: Arrived
Operator: Unknown
More flights by this operator :: More flights under this callsign
Pilot: Ryan D. (29877)
Aircraft: CIRRUS SR-22 TURBO
(S22T)
More flights by this aircraft type
Origin: KAVX Catalina
United States
Destination: KSBA Santa Barbara Mun
United States
More flights between these airports :: More routes between these airports
Route: SXC V208 VTU VTU282R KWANG
File this flight plan on PilotEdge
Remarks:
Altitude:
(Current/Filed)
6,000ft
Speed:
(Current/Filed)
170kts
Departed: 30-Jul-20 12:20 PM
Arrived: 30-Jul-20 12:57 PM
Distance/Time
Traveled:
94nm/0:37
Distance/Time
To Go:
Arrived

Flight Plot

Page will automatically refresh every two minutes.


Map Options




Map Legend


Flown Route
Filed Route
Departure Airport
Arrival Airport
Navaid (VOR, NDB)
Fix

Horizontal Profiles

Position Reports

Time Latitude Longitude Heading Altitude Ground
Speed
30-Jul-20 12:04 33.403838 -118.415331 141 1588ft 0kts
30-Jul-20 12:05 33.403838 -118.415331 141 1588ft 0kts
30-Jul-20 12:06 33.403838 -118.415331 141 1588ft 0kts
30-Jul-20 12:07 33.403837 -118.415331 141 1588ft 0kts
30-Jul-20 12:08 33.403837 -118.415331 141 1588ft 0kts
30-Jul-20 12:09 33.403837 -118.415331 141 1588ft 0kts
30-Jul-20 12:10 33.403837 -118.415331 141 1588ft 0kts
30-Jul-20 12:11 33.403837 -118.415331 141 1588ft 0kts
30-Jul-20 12:12 33.403837 -118.415331 141 1588ft 0kts
30-Jul-20 12:13 33.403837 -118.415331 141 1588ft 0kts
30-Jul-20 12:14 33.404273 -118.415007 356 1585ft 4kts
30-Jul-20 12:15 33.405923 -118.413549 55 1570ft 15kts
30-Jul-20 12:16 33.407142 -118.411459 50 1552ft 0kts
30-Jul-20 12:17 33.407142 -118.411459 50 1552ft 0kts
30-Jul-20 12:18 33.407394 -118.411460 314 1552ft 3kts
30-Jul-20 12:19 33.397965 -118.426718 226 2080ft 103kts
30-Jul-20 12:20 33.398101 -118.455824 312 3372ft 110kts
30-Jul-20 12:21 33.421016 -118.485424 308 4665ft 125kts
30-Jul-20 12:22 33.443439 -118.517187 306 5982ft 130kts
30-Jul-20 12:23 33.471346 -118.556949 308 6007ft 169kts
30-Jul-20 12:24 33.502148 -118.600872 308 5999ft 174kts
30-Jul-20 12:25 33.533380 -118.645484 308 5998ft 174kts
30-Jul-20 12:26 33.564623 -118.690167 307 6000ft 175kts
30-Jul-20 12:27 33.595961 -118.735056 307 6000ft 175kts
30-Jul-20 12:28 33.627246 -118.779911 307 6000ft 176kts
30-Jul-20 12:29 33.658641 -118.824978 307 6051ft 174kts
30-Jul-20 12:30 33.689820 -118.869797 307 6046ft 176kts
30-Jul-20 12:31 33.721291 -118.915080 307 6038ft 176kts
30-Jul-20 12:32 33.752721 -118.960367 307 6032ft 176kts
30-Jul-20 12:33 33.783991 -119.005484 307 6024ft 175kts
30-Jul-20 12:34 33.830617 -119.019594 351 6021ft 180kts
30-Jul-20 12:35 33.880466 -119.024867 351 6021ft 180kts
30-Jul-20 12:36 33.930501 -119.030111 351 6019ft 180kts
30-Jul-20 12:37 33.980504 -119.035355 351 6019ft 180kts
30-Jul-20 12:38 34.030596 -119.040625 352 6019ft 181kts
30-Jul-20 12:39 34.081086 -119.045922 352 6018ft 182kts
30-Jul-20 12:40 34.122796 -119.068801 295 6026ft 175kts
30-Jul-20 12:41 34.145223 -119.121392 294 6017ft 176kts
30-Jul-20 12:42 34.167363 -119.174091 294 6020ft 176kts
30-Jul-20 12:43 34.190251 -119.228780 295 5532ft 188kts
30-Jul-20 12:44 34.214048 -119.285671 295 4935ft 189kts
30-Jul-20 12:45 34.237766 -119.342542 295 4334ft 189kts
30-Jul-20 12:46 34.260985 -119.398281 295 3996ft 179kts
30-Jul-20 12:47 34.282955 -119.451125 295 3999ft 174kts
30-Jul-20 12:48 34.304561 -119.503154 295 3999ft 173kts
30-Jul-20 12:49 34.324192 -119.556096 292 3999ft 172kts
30-Jul-20 12:50 34.343359 -119.609527 292 3974ft 174kts
30-Jul-20 12:51 34.365591 -119.666008 295 3109ft 189kts
30-Jul-20 12:52 34.390950 -119.718602 301 2160ft 174kts
30-Jul-20 12:53 34.415840 -119.766048 301 1263ft 156kts
30-Jul-20 12:54 34.428593 -119.810086 264 437ft 119kts
30-Jul-20 12:55 34.427811 -119.838702 267 13ft 71kts
30-Jul-20 12:56 34.428449 -119.845599 58 12ft 0kts
30-Jul-20 12:57 34.428697 -119.844981 65 13ft 11kts
30-Jul-20 12:58 34.430774 -119.839574 67 14ft 19kts
30-Jul-20 12:59 34.432702 -119.836177 337 17ft 6kts
30-Jul-20 13:00 34.432868 -119.836057 71 18ft 0kts

Navigation Log

Ident Type
Flight plan parsing failed, navigation log unavailable